sensor_id;sensor_type;location;lat;lon;timestamp;pressure;altitude;pressure_sealevel;temperature;humidity
54022;BME280;39936;51.058;17.220;2023-09-12T00:01:38;101370.90;;;14.28;100.00
54022;BME280;39936;51.058;17.220;2023-09-12T00:05:06;101331.98;;;14.05;100.00
54022;BME280;39936;51.058;17.220;2023-09-12T00:08:33;101362.18;;;14.23;100.00
54022;BME280;39936;51.058;17.220;2023-09-12T00:11:55;101361.09;;;14.21;100.00
54022;BME280;39936;51.058;17.220;2023-09-12T00:15:24;101324.96;;;13.97;100.00
54022;BME280;39936;51.058;17.220;2023-09-12T00:19:04;101353.61;;;14.14;100.00
54022;BME280;39936;51.058;17.220;2023-09-12T00:22:18;101353.85;;;14.13;100.00
54022;BME280;39936;51.058;17.220;2023-09-12T00:25:31;101357.19;;;14.10;100.00
54022;BME280;39936;51.058;17.220;2023-09-12T00:28:47;101354.92;;;14.07;100.00
54022;BME280;39936;51.058;17.220;2023-09-12T00:32:00;101362.70;;;14.05;100.00
54022;BME280;39936;51.058;17.220;2023-09-12T00:35:29;101364.20;;;13.96;100.00
54022;BME280;39936;51.058;17.220;2023-09-12T00:38:54;101364.69;;;13.89;100.00
54022;BME280;39936;51.058;17.220;2023-09-12T00:42:12;101361.80;;;13.82;100.00
54022;BME280;39936;51.058;17.220;2023-09-12T00:45:37;101362.11;;;13.82;100.00
54022;BME280;39936;51.058;17.220;2023-09-12T00:48:52;101367.16;;;13.86;100.00
54022;BME280;39936;51.058;17.220;2023-09-12T00:52:06;101368.09;;;13.87;100.00
54022;BME280;39936;51.058;17.220;2023-09-12T00:55:30;101364.46;;;13.82;100.00
54022;BME280;39936;51.058;17.220;2023-09-12T01:02:49;101369.31;;;13.76;100.00
54022;BME280;39936;51.058;17.220;2023-09-12T01:06:34;101367.64;;;13.74;100.00
54022;BME280;39936;51.058;17.220;2023-09-12T01:10:35;101367.26;;;13.73;100.00
54022;BME280;39936;51.058;17.220;2023-09-12T01:13:48;101366.49;;;13.70;100.00
54022;BME280;39936;51.058;17.220;2023-09-12T01:17:04;101363.05;;;13.64;100.00
54022;BME280;39936;51.058;17.220;2023-09-12T01:28:43;101359.12;;;13.58;100.00
54022;BME280;39936;51.058;17.220;2023-09-12T01:32:44;101359.28;;;13.65;100.00
54022;BME280;39936;51.058;17.220;2023-09-12T01:35:55;101358.98;;;13.72;100.00
54022;BME280;39936;51.058;17.220;2023-09-12T01:39:12;101329.03;;;13.44;100.00
54022;BME280;39936;51.058;17.220;2023-09-12T01:42:42;101362.37;;;13.59;100.00
54022;BME280;39936;51.058;17.220;2023-09-12T01:46:09;101360.11;;;13.59;100.00
54022;BME280;39936;51.058;17.220;2023-09-12T01:49:23;101362.35;;;13.57;100.00
54022;BME280;39936;51.058;17.220;2023-09-12T01:52:40;101366.83;;;13.55;100.00
54022;BME280;39936;51.058;17.220;2023-09-12T01:56:42;101335.79;;;13.28;100.00
54022;BME280;39936;51.058;17.220;2023-09-12T02:00:18;101366.49;;;13.43;100.00
54022;BME280;39936;51.058;17.220;2023-09-12T02:03:36;101367.58;;;13.39;100.00
54022;BME280;39936;51.058;17.220;2023-09-12T02:06:49;101367.11;;;13.37;100.00
54022;BME280;39936;51.058;17.220;2023-09-12T02:10:18;101367.87;;;13.35;100.00
54022;BME280;39936;51.058;17.220;2023-09-12T02:13:36;101368.08;;;13.35;100.00
54022;BME280;39936;51.058;17.220;2023-09-12T02:16:55;101363.05;;;13.26;100.00
54022;BME280;39936;51.058;17.220;2023-09-12T02:20:46;101367.98;;;13.22;100.00
54022;BME280;39936;51.058;17.220;2023-09-12T02:24:00;101366.92;;;13.13;100.00
54022;BME280;39936;51.058;17.220;2023-09-12T02:27:17;101364.75;;;13.11;100.00
54022;BME280;39936;51.058;17.220;2023-09-12T02:30:40;101364.11;;;13.13;100.00
54022;BME280;39936;51.058;17.220;2023-09-12T02:34:16;101365.12;;;13.16;100.00
54022;BME280;39936;51.058;17.220;2023-09-12T02:37:42;101367.53;;;13.20;100.00
54022;BME280;39936;51.058;17.220;2023-09-12T02:41:10;101366.69;;;13.20;100.00
54022;BME280;39936;51.058;17.220;2023-09-12T02:44:29;101340.11;;;13.02;100.00
54022;BME280;39936;51.058;17.220;2023-09-12T02:47:54;101359.55;;;13.10;100.00
54022;BME280;39936;51.058;17.220;2023-09-12T02:51:18;101360.97;;;13.01;100.00
54022;BME280;39936;51.058;17.220;2023-09-12T02:54:32;101363.98;;;12.96;100.00
54022;BME280;39936;51.058;17.220;2023-09-12T02:58:12;101364.77;;;12.92;100.00
54022;BME280;39936;51.058;17.220;2023-09-12T03:01:25;101363.66;;;12.93;100.00
54022;BME280;39936;51.058;17.220;2023-09-12T03:04:52;101366.48;;;12.97;100.00
54022;BME280;39936;51.058;17.220;2023-09-12T03:08:05;101349.87;;;12.86;100.00
54022;BME280;39936;51.058;17.220;2023-09-12T03:11:35;101373.47;;;12.99;100.00
54022;BME280;39936;51.058;17.220;2023-09-12T03:14:59;101359.44;;;12.91;100.00
54022;BME280;39936;51.058;17.220;2023-09-12T03:18:39;101371.94;;;13.06;100.00
54022;BME280;39936;51.058;17.220;2023-09-12T03:22:26;101369.92;;;13.03;100.00
54022;BME280;39936;51.058;17.220;2023-09-12T03:25:54;101372.01;;;13.00;100.00
54022;BME280;39936;51.058;17.220;2023-09-12T03:29:55;101375.30;;;13.00;100.00
54022;BME280;39936;51.058;17.220;2023-09-12T03:33:19;101376.74;;;13.01;100.00
54022;BME280;39936;51.058;17.220;2023-09-12T03:36:46;101375.51;;;13.02;100.00
54022;BME280;39936;51.058;17.220;2023-09-12T03:39:59;101374.43;;;12.97;100.00
54022;BME280;39936;51.058;17.220;2023-09-12T03:43:38;101375.92;;;12.85;100.00
54022;BME280;39936;51.058;17.220;2023-09-12T03:46:55;101375.52;;;12.83;100.00
54022;BME280;39936;51.058;17.220;2023-09-12T03:50:45;101374.98;;;12.82;100.00
54022;BME280;39936;51.058;17.220;2023-09-12T03:54:00;101374.72;;;12.80;100.00
54022;BME280;39936;51.058;17.220;2023-09-12T03:57:40;101378.71;;;12.80;100.00
54022;BME280;39936;51.058;17.220;2023-09-12T04:00:59;101375.33;;;12.76;100.00
54022;BME280;39936;51.058;17.220;2023-09-12T04:04:25;101374.56;;;12.74;100.00
54022;BME280;39936;51.058;17.220;2023-09-12T04:07:50;101373.87;;;12.72;100.00
54022;BME280;39936;51.058;17.220;2023-09-12T04:11:03;101372.18;;;12.73;100.00
54022;BME280;39936;51.058;17.220;2023-09-12T04:15:03;101373.21;;;12.72;100.00
54022;BME280;39936;51.058;17.220;2023-09-12T04:19:00;101378.99;;;12.67;100.00
54022;BME280;39936;51.058;17.220;2023-09-12T04:26:06;101381.15;;;12.77;100.00
54022;BME280;39936;51.058;17.220;2023-09-12T04:29:20;101380.99;;;12.75;100.00
54022;BME280;39936;51.058;17.220;2023-09-12T04:33:11;101382.77;;;12.76;100.00
54022;BME280;39936;51.058;17.220;2023-09-12T04:36:27;101383.67;;;12.74;100.00
54022;BME280;39936;51.058;17.220;2023-09-12T04:39:41;101382.45;;;12.73;100.00
54022;BME280;39936;51.058;17.220;2023-09-12T04:42:56;101379.05;;;12.72;100.00
54022;BME280;39936;51.058;17.220;2023-09-12T04:46:17;101375.92;;;12.67;100.00
54022;BME280;39936;51.058;17.220;2023-09-12T04:49:36;101378.44;;;12.67;100.00
54022;BME280;39936;51.058;17.220;2023-09-12T04:52:53;101381.92;;;12.72;100.00
54022;BME280;39936;51.058;17.220;2023-09-12T04:56:12;101383.42;;;12.77;100.00
54022;BME280;39936;51.058;17.220;2023-09-12T04:59:29;101384.48;;;12.91;100.00
54022;BME280;39936;51.058;17.220;2023-09-12T05:03:19;101378.58;;;13.09;100.00
54022;BME280;39936;51.058;17.220;2023-09-12T05:06:55;101353.03;;;13.02;100.00
54022;BME280;39936;51.058;17.220;2023-09-12T05:10:44;101381.47;;;13.27;100.00
54022;BME280;39936;51.058;17.220;2023-09-12T05:13:59;101387.06;;;13.36;100.00
54022;BME280;39936;51.058;17.220;2023-09-12T05:17:17;101389.59;;;13.53;100.00
54022;BME280;39936;51.058;17.220;2023-09-12T05:20:28;101376.16;;;13.70;100.00
54022;BME280;39936;51.058;17.220;2023-09-12T05:23:53;101389.52;;;14.04;100.00
54022;BME280;39936;51.058;17.220;2023-09-12T05:27:34;101378.89;;;14.13;100.00
54022;BME280;39936;51.058;17.220;2023-09-12T05:30:48;101391.09;;;14.38;100.00
54022;BME280;39936;51.058;17.220;2023-09-12T05:34:06;101387.45;;;14.59;100.00
54022;BME280;39936;51.058;17.220;2023-09-12T05:41:36;101389.00;;;14.93;100.00
54022;BME280;39936;51.058;17.220;2023-09-12T05:44:53;101384.02;;;15.31;100.00
54022;BME280;39936;51.058;17.220;2023-09-12T05:48:09;101384.16;;;15.57;100.00
54022;BME280;39936;51.058;17.220;2023-09-12T05:51:44;101377.34;;;15.73;100.00
54022;BME280;39936;51.058;17.220;2023-09-12T05:55:11;101354.19;;;15.86;100.00
54022;BME280;39936;51.058;17.220;2023-09-12T05:59:03;101380.34;;;16.31;100.00
54022;BME280;39936;51.058;17.220;2023-09-12T06:02:42;101377.42;;;16.54;100.00
54022;BME280;39936;51.058;17.220;2023-09-12T06:05:57;101372.83;;;16.83;100.00
54022;BME280;39936;51.058;17.220;2023-09-12T06:09:12;101373.51;;;17.10;100.00
54022;BME280;39936;51.058;17.220;2023-09-12T06:12:41;101369.14;;;17.27;100.00
54022;BME280;39936;51.058;17.220;2023-09-12T06:16:08;101366.70;;;17.45;100.00
54022;BME280;39936;51.058;17.220;2023-09-12T06:19:36;101363.85;;;17.77;100.00
54022;BME280;39936;51.058;17.220;2023-09-12T06:22:51;101362.30;;;18.19;100.00
54022;BME280;39936;51.058;17.220;2023-09-12T06:26:20;101362.92;;;18.33;100.00
54022;BME280;39936;51.058;17.220;2023-09-12T06:29:39;101364.55;;;18.42;100.00
54022;BME280;39936;51.058;17.220;2023-09-12T06:33:06;101360.77;;;18.41;100.00
54022;BME280;39936;51.058;17.220;2023-09-12T06:36:21;101359.41;;;18.60;100.00
54022;BME280;39936;51.058;17.220;2023-09-12T06:39:40;101355.46;;;18.85;100.00
54022;BME280;39936;51.058;17.220;2023-09-12T06:43:15;101354.08;;;19.20;100.00
54022;BME280;39936;51.058;17.220;2023-09-12T06:46:32;101331.55;;;19.36;100.00
54022;BME280;39936;51.058;17.220;2023-09-12T06:49:51;101350.23;;;19.61;100.00
54022;BME280;39936;51.058;17.220;2023-09-12T06:53:45;101354.16;;;19.71;100.00
54022;BME280;39936;51.058;17.220;2023-09-12T06:57:35;101351.98;;;20.03;99.33
54022;BME280;39936;51.058;17.220;2023-09-12T07:00:49;101354.37;;;20.22;97.49
54022;BME280;39936;51.058;17.220;2023-09-12T07:04:08;101354.26;;;20.53;97.73
54022;BME280;39936;51.058;17.220;2023-09-12T07:07:35;101330.84;;;20.78;95.52
54022;BME280;39936;51.058;17.220;2023-09-12T07:11:09;101351.94;;;21.28;91.85
54022;BME280;39936;51.058;17.220;2023-09-12T07:14:24;101319.52;;;21.38;86.59
54022;BME280;39936;51.058;17.220;2023-09-12T07:17:53;101344.49;;;21.50;81.80
54022;BME280;39936;51.058;17.220;2023-09-12T07:21:37;101328.86;;;21.45;80.91
54022;BME280;39936;51.058;17.220;2023-09-12T07:25:05;101344.03;;;21.68;80.64
54022;BME280;39936;51.058;17.220;2023-09-12T07:33:59;101348.59;;;22.44;78.89
54022;BME280;39936;51.058;17.220;2023-09-12T07:37:42;101342.74;;;22.68;79.76
54022;BME280;39936;51.058;17.220;2023-09-12T07:42:33;101343.84;;;22.89;74.72
54022;BME280;39936;51.058;17.220;2023-09-12T07:46:16;101338.99;;;22.99;77.92
54022;BME280;39936;51.058;17.220;2023-09-12T07:49:53;101316.32;;;23.12;78.16
54022;BME280;39936;51.058;17.220;2023-09-12T07:53:22;101332.78;;;23.52;74.23
54022;BME280;39936;51.058;17.220;2023-09-12T07:57:05;101330.39;;;23.77;73.30
54022;BME280;39936;51.058;17.220;2023-09-12T08:00:39;101331.25;;;23.95;72.24
54022;BME280;39936;51.058;17.220;2023-09-12T08:03:56;101322.69;;;24.10;72.30
54022;BME280;39936;51.058;17.220;2023-09-12T08:07:26;101324.66;;;24.33;71.00
54022;BME280;39936;51.058;17.220;2023-09-12T08:11:01;101328.94;;;24.49;71.04
54022;BME280;39936;51.058;17.220;2023-09-12T08:14:42;101323.66;;;24.70;70.02
54022;BME280;39936;51.058;17.220;2023-09-12T08:18:04;101324.09;;;24.97;69.73
54022;BME280;39936;51.058;17.220;2023-09-12T08:21:23;101327.36;;;25.02;67.14
54022;BME280;39936;51.058;17.220;2023-09-12T08:24:43;101316.63;;;25.07;68.44
54022;BME280;39936;51.058;17.220;2023-09-12T08:28:15;101318.73;;;25.16;69.44
54022;BME280;39936;51.058;17.220;2023-09-12T08:31:32;101313.43;;;25.32;65.44
54022;BME280;39936;51.058;17.220;2023-09-12T08:35:03;101318.56;;;25.51;66.44
54022;BME280;39936;51.058;17.220;2023-09-12T08:38:53;101306.46;;;25.46;64.87
54022;BME280;39936;51.058;17.220;2023-09-12T08:42:14;101324.54;;;25.67;66.66
54022;BME280;39936;51.058;17.220;2023-09-12T08:46:17;101316.40;;;25.90;64.80
54022;BME280;39936;51.058;17.220;2023-09-12T08:49:35;101314.64;;;25.97;61.37
54022;BME280;39936;51.058;17.220;2023-09-12T08:53:06;101315.69;;;26.11;62.35
54022;BME280;39936;51.058;17.220;2023-09-12T08:56:22;101306.29;;;25.98;62.89
54022;BME280;39936;51.058;17.220;2023-09-12T08:59:44;101322.45;;;26.13;64.39
54022;BME280;39936;51.058;17.220;2023-09-12T09:03:44;101321.53;;;26.24;65.07
54022;BME280;39936;51.058;17.220;2023-09-12T09:06:59;101322.44;;;26.26;64.68
54022;BME280;39936;51.058;17.220;2023-09-12T09:10:22;101325.08;;;26.21;63.08
54022;BME280;39936;51.058;17.220;2023-09-12T09:13:52;101324.98;;;26.13;61.03
54022;BME280;39936;51.058;17.220;2023-09-12T09:17:12;101306.98;;;26.01;62.43
54022;BME280;39936;51.058;17.220;2023-09-12T09:20:41;101331.08;;;26.31;64.06
54022;BME280;39936;51.058;17.220;2023-09-12T09:24:18;101327.01;;;26.47;62.65
54022;BME280;39936;51.058;17.220;2023-09-12T09:27:49;101326.16;;;26.66;63.31
54022;BME280;39936;51.058;17.220;2023-09-12T09:31:10;101320.66;;;26.78;61.44
54022;BME280;39936;51.058;17.220;2023-09-12T09:35:05;101321.91;;;26.90;61.36
54022;BME280;39936;51.058;17.220;2023-09-12T09:39:06;101317.48;;;27.06;61.96
54022;BME280;39936;51.058;17.220;2023-09-12T09:46:06;101312.05;;;27.08;61.30
54022;BME280;39936;51.058;17.220;2023-09-12T09:49:34;101306.21;;;27.12;60.76
54022;BME280;39936;51.058;17.220;2023-09-12T09:52:54;101302.98;;;27.16;59.23
54022;BME280;39936;51.058;17.220;2023-09-12T09:56:16;101300.51;;;27.43;57.93
54022;BME280;39936;51.058;17.220;2023-09-12T09:59:50;101300.79;;;27.51;58.04
54022;BME280;39936;51.058;17.220;2023-09-12T10:03:41;101300.84;;;27.57;57.56
54022;BME280;39936;51.058;17.220;2023-09-12T10:07:20;101296.30;;;27.81;57.33
54022;BME280;39936;51.058;17.220;2023-09-12T10:10:51;101293.05;;;27.94;55.19
54022;BME280;39936;51.058;17.220;2023-09-12T10:14:05;101277.60;;;27.74;52.50
54022;BME280;39936;51.058;17.220;2023-09-12T10:17:22;101292.34;;;27.58;52.42
54022;BME280;39936;51.058;17.220;2023-09-12T10:20:52;101293.74;;;27.65;54.56
54022;BME280;39936;51.058;17.220;2023-09-12T10:24:10;101266.20;;;27.67;56.23
54022;BME280;39936;51.058;17.220;2023-09-12T10:27:23;101283.38;;;27.94;52.65
54022;BME280;39936;51.058;17.220;2023-09-12T10:30:40;101291.20;;;27.91;52.78
54022;BME280;39936;51.058;17.220;2023-09-12T10:34:12;101288.79;;;27.93;54.48
54022;BME280;39936;51.058;17.220;2023-09-12T10:37:29;101279.57;;;28.06;54.87
54022;BME280;39936;51.058;17.220;2023-09-12T10:40:54;101288.18;;;28.25;49.06
54022;BME280;39936;51.058;17.220;2023-09-12T10:44:36;101283.63;;;28.01;50.54
54022;BME280;39936;51.058;17.220;2023-09-12T10:47:53;101284.50;;;28.14;45.21
54022;BME280;39936;51.058;17.220;2023-09-12T10:51:51;101284.45;;;28.05;45.11
54022;BME280;39936;51.058;17.220;2023-09-12T10:55:18;101279.21;;;28.17;44.29
54022;BME280;39936;51.058;17.220;2023-09-12T10:59:13;101275.00;;;27.89;41.82
54022;BME280;39936;51.058;17.220;2023-09-12T11:06:37;101269.62;;;28.24;47.71
54022;BME280;39936;51.058;17.220;2023-09-12T11:13:37;101272.29;;;28.49;44.38
54022;BME280;39936;51.058;17.220;2023-09-12T11:24:19;101264.95;;;28.80;44.74
54022;BME280;39936;51.058;17.220;2023-09-12T11:28:03;101262.70;;;29.00;43.33
54022;BME280;39936;51.058;17.220;2023-09-12T11:31:55;101261.33;;;28.78;43.39
54022;BME280;39936;51.058;17.220;2023-09-12T11:35:25;101260.19;;;28.76;46.39
54022;BME280;39936;51.058;17.220;2023-09-12T11:42:53;101261.24;;;28.75;42.69
54022;BME280;39936;51.058;17.220;2023-09-12T11:46:35;101257.68;;;28.77;42.45
54022;BME280;39936;51.058;17.220;2023-09-12T11:50:08;101257.80;;;28.78;41.11
54022;BME280;39936;51.058;17.220;2023-09-12T11:53:27;101255.02;;;28.66;41.92
54022;BME280;39936;51.058;17.220;2023-09-12T12:00:53;101248.45;;;29.09;42.81
54022;BME280;39936;51.058;17.220;2023-09-12T12:04:10;101245.59;;;29.23;42.15
54022;BME280;39936;51.058;17.220;2023-09-12T12:08:11;101245.03;;;29.46;41.06
54022;BME280;39936;51.058;17.220;2023-09-12T12:11:39;101229.21;;;29.66;42.78
54022;BME280;39936;51.058;17.220;2023-09-12T12:14:56;101234.16;;;29.79;42.79
54022;BME280;39936;51.058;17.220;2023-09-12T12:18:51;101215.82;;;29.69;42.19
54022;BME280;39936;51.058;17.220;2023-09-12T12:22:10;101236.38;;;29.48;40.79
54022;BME280;39936;51.058;17.220;2023-09-12T12:25:38;101241.16;;;29.55;41.61
54022;BME280;39936;51.058;17.220;2023-09-12T12:28:54;101238.62;;;29.65;42.49
54022;BME280;39936;51.058;17.220;2023-09-12T12:32:17;101237.71;;;29.73;42.02
54022;BME280;39936;51.058;17.220;2023-09-12T12:35:34;101236.35;;;29.77;42.10
54022;BME280;39936;51.058;17.220;2023-09-12T12:38:52;101230.75;;;29.75;42.55
54022;BME280;39936;51.058;17.220;2023-09-12T12:42:06;101234.18;;;29.74;42.14
54022;BME280;39936;51.058;17.220;2023-09-12T12:45:23;101238.96;;;29.74;40.36
54022;BME280;39936;51.058;17.220;2023-09-12T12:48:45;101235.03;;;29.77;40.07
54022;BME280;39936;51.058;17.220;2023-09-12T12:52:10;101232.84;;;29.73;41.42
54022;BME280;39936;51.058;17.220;2023-09-12T12:55:55;101240.73;;;29.58;42.24
54022;BME280;39936;51.058;17.220;2023-09-12T12:59:47;101230.29;;;29.68;40.53
54022;BME280;39936;51.058;17.220;2023-09-12T13:03:13;101222.90;;;29.96;41.78
54022;BME280;39936;51.058;17.220;2023-09-12T13:07:05;101220.75;;;29.90;40.74
54022;BME280;39936;51.058;17.220;2023-09-12T13:10:31;101223.98;;;29.97;40.20
54022;BME280;39936;51.058;17.220;2023-09-12T13:13:51;101221.69;;;29.94;40.34
54022;BME280;39936;51.058;17.220;2023-09-12T13:17:07;101221.42;;;29.86;40.91
54022;BME280;39936;51.058;17.220;2023-09-12T13:20:45;101215.48;;;29.81;41.59
54022;BME280;39936;51.058;17.220;2023-09-12T13:24:02;101214.87;;;29.70;41.60
54022;BME280;39936;51.058;17.220;2023-09-12T13:27:19;101214.15;;;29.56;41.32
54022;BME280;39936;51.058;17.220;2023-09-12T13:30:47;101215.38;;;29.47;41.37
54022;BME280;39936;51.058;17.220;2023-09-12T13:34:05;101213.97;;;29.22;40.16
54022;BME280;39936;51.058;17.220;2023-09-12T13:37:27;101211.16;;;29.33;41.33
54022;BME280;39936;51.058;17.220;2023-09-12T13:40:48;101204.97;;;29.51;40.96
54022;BME280;39936;51.058;17.220;2023-09-12T13:44:08;101203.55;;;29.58;42.22
54022;BME280;39936;51.058;17.220;2023-09-12T13:47:23;101196.70;;;29.79;42.63
54022;BME280;39936;51.058;17.220;2023-09-12T13:51:25;101196.13;;;29.89;39.81
54022;BME280;39936;51.058;17.220;2023-09-12T13:54:40;101191.26;;;29.82;40.57
54022;BME280;39936;51.058;17.220;2023-09-12T13:57:58;101190.57;;;29.95;41.29
54022;BME280;39936;51.058;17.220;2023-09-12T14:01:18;101188.53;;;29.54;40.64
54022;BME280;39936;51.058;17.220;2023-09-12T14:04:53;101192.62;;;29.23;40.66
54022;BME280;39936;51.058;17.220;2023-09-12T14:08:06;101194.00;;;29.14;41.54
54022;BME280;39936;51.058;17.220;2023-09-12T14:12:00;101194.97;;;29.22;41.56
54022;BME280;39936;51.058;17.220;2023-09-12T14:15:16;101184.78;;;29.58;41.09
54022;BME280;39936;51.058;17.220;2023-09-12T14:18:31;101189.85;;;29.87;41.40
54022;BME280;39936;51.058;17.220;2023-09-12T14:22:12;101191.78;;;29.85;40.00
54022;BME280;39936;51.058;17.220;2023-09-12T14:25:42;101189.20;;;29.53;41.64
54022;BME280;39936;51.058;17.220;2023-09-12T14:28:58;101194.74;;;29.63;40.85
54022;BME280;39936;51.058;17.220;2023-09-12T14:32:22;101193.65;;;29.63;41.45
54022;BME280;39936;51.058;17.220;2023-09-12T14:35:40;101193.41;;;29.44;41.45
54022;BME280;39936;51.058;17.220;2023-09-12T14:39:00;101191.28;;;29.40;41.03
54022;BME280;39936;51.058;17.220;2023-09-12T14:42:31;101190.85;;;29.54;41.62
54022;BME280;39936;51.058;17.220;2023-09-12T14:45:50;101190.96;;;29.67;40.67
54022;BME280;39936;51.058;17.220;2023-09-12T14:49:40;101187.80;;;29.73;41.38
54022;BME280;39936;51.058;17.220;2023-09-12T14:52:57;101190.59;;;29.65;41.74
54022;BME280;39936;51.058;17.220;2023-09-12T14:56:11;101187.74;;;29.61;40.94
54022;BME280;39936;51.058;17.220;2023-09-12T15:00:15;101185.19;;;29.64;41.53
54022;BME280;39936;51.058;17.220;2023-09-12T15:03:31;101187.97;;;29.67;41.17
54022;BME280;39936;51.058;17.220;2023-09-12T15:07:01;101187.98;;;29.73;40.77
54022;BME280;39936;51.058;17.220;2023-09-12T15:10:17;101187.14;;;29.86;40.81
54022;BME280;39936;51.058;17.220;2023-09-12T15:13:46;101185.66;;;29.74;42.07
54022;BME280;39936;51.058;17.220;2023-09-12T15:17:01;101186.75;;;29.39;40.32
54022;BME280;39936;51.058;17.220;2023-09-12T15:20:17;101188.96;;;29.35;41.42
54022;BME280;39936;51.058;17.220;2023-09-12T15:23:35;101186.23;;;29.43;41.09
54022;BME280;39936;51.058;17.220;2023-09-12T15:27:03;101183.95;;;29.35;41.76
54022;BME280;39936;51.058;17.220;2023-09-12T15:30:17;101190.31;;;29.14;41.98
54022;BME280;39936;51.058;17.220;2023-09-12T15:33:36;101189.60;;;29.06;42.79
54022;BME280;39936;51.058;17.220;2023-09-12T15:37:11;101185.51;;;28.95;42.67
54022;BME280;39936;51.058;17.220;2023-09-12T15:40:24;101188.60;;;28.91;44.37
54022;BME280;39936;51.058;17.220;2023-09-12T15:43:43;101180.94;;;28.79;43.78
54022;BME280;39936;51.058;17.220;2023-09-12T15:46:55;101183.30;;;28.75;44.50
54022;BME280;39936;51.058;17.220;2023-09-12T15:50:15;101183.27;;;28.64;45.02
54022;BME280;39936;51.058;17.220;2023-09-12T15:54:09;101187.02;;;28.52;43.97
54022;BME280;39936;51.058;17.220;2023-09-12T15:57:24;101188.29;;;28.41;46.11
54022;BME280;39936;51.058;17.220;2023-09-12T16:00:39;101162.21;;;28.16;45.56
54022;BME280;39936;51.058;17.220;2023-09-12T16:04:09;101185.99;;;28.21;45.21
54022;BME280;39936;51.058;17.220;2023-09-12T16:07:25;101186.78;;;28.11;45.17
54022;BME280;39936;51.058;17.220;2023-09-12T16:10:40;101161.58;;;27.84;45.85
54022;BME280;39936;51.058;17.220;2023-09-12T16:13:59;101183.23;;;27.93;46.49
54022;BME280;39936;51.058;17.220;2023-09-12T16:17:15;101184.62;;;27.90;47.43
54022;BME280;39936;51.058;17.220;2023-09-12T16:20:53;101159.06;;;27.57;47.68
54022;BME280;39936;51.058;17.220;2023-09-12T16:24:16;101186.31;;;27.58;47.54
54022;BME280;39936;51.058;17.220;2023-09-12T16:28:20;101182.63;;;27.42;48.29
54022;BME280;39936;51.058;17.220;2023-09-12T16:31:38;101184.45;;;27.27;50.01
54022;BME280;39936;51.058;17.220;2023-09-12T16:38:57;101186.57;;;27.00;52.08
54022;BME280;39936;51.058;17.220;2023-09-12T16:42:17;101185.30;;;26.78;52.12
54022;BME280;39936;51.058;17.220;2023-09-12T16:45:35;101187.37;;;26.58;53.79
54022;BME280;39936;51.058;17.220;2023-09-12T16:48:52;101189.28;;;26.28;54.29
54022;BME280;39936;51.058;17.220;2023-09-12T16:52:16;101189.72;;;25.82;57.16
54022;BME280;39936;51.058;17.220;2023-09-12T16:55:38;101186.66;;;25.38;58.30
54022;BME280;39936;51.058;17.220;2023-09-12T16:59:24;101188.23;;;24.98;61.23
54022;BME280;39936;51.058;17.220;2023-09-12T17:02:49;101192.34;;;24.67;62.52
54022;BME280;39936;51.058;17.220;2023-09-12T17:06:49;101196.13;;;24.39;62.49
54022;BME280;39936;51.058;17.220;2023-09-12T17:10:14;101194.38;;;24.23;62.40
54022;BME280;39936;51.058;17.220;2023-09-12T17:14:23;101202.43;;;24.15;63.38
54022;BME280;39936;51.058;17.220;2023-09-12T17:17:46;101202.48;;;24.04;62.86
54022;BME280;39936;51.058;17.220;2023-09-12T17:21:55;101204.92;;;23.96;62.97
54022;BME280;39936;51.058;17.220;2023-09-12T17:25:19;101208.90;;;23.79;63.79
54022;BME280;39936;51.058;17.220;2023-09-12T17:28:41;101206.79;;;23.61;63.52
54022;BME280;39936;51.058;17.220;2023-09-12T17:32:10;101210.45;;;23.38;65.60
54022;BME280;39936;51.058;17.220;2023-09-12T17:35:28;101213.60;;;23.03;68.21
54022;BME280;39936;51.058;17.220;2023-09-12T17:38:48;101216.23;;;22.71;70.09
54022;BME280;39936;51.058;17.220;2023-09-12T17:42:21;101219.78;;;22.50;71.72
54022;BME280;39936;51.058;17.220;2023-09-12T17:45:43;101218.48;;;22.38;69.84
54022;BME280;39936;51.058;17.220;2023-09-12T17:49:53;101223.39;;;22.32;69.91
54022;BME280;39936;51.058;17.220;2023-09-12T17:53:12;101204.07;;;22.04;73.76
54022;BME280;39936;51.058;17.220;2023-09-12T17:57:03;101227.90;;;21.88;76.61
54022;BME280;39936;51.058;17.220;2023-09-12T18:00:20;101228.04;;;21.61;78.68
54022;BME280;39936;51.058;17.220;2023-09-12T18:03:57;101213.20;;;21.37;78.23
54022;BME280;39936;51.058;17.220;2023-09-12T18:07:46;101229.25;;;21.44;77.95
54022;BME280;39936;51.058;17.220;2023-09-12T18:11:07;101237.28;;;21.45;77.09
54022;BME280;39936;51.058;17.220;2023-09-12T18:18:22;101250.58;;;21.44;76.28
54022;BME280;39936;51.058;17.220;2023-09-12T18:21:39;101252.29;;;21.41;76.98
54022;BME280;39936;51.058;17.220;2023-09-12T18:25:05;101254.27;;;21.31;76.81
54022;BME280;39936;51.058;17.220;2023-09-12T18:31:57;101259.01;;;21.00;78.63
54022;BME280;39936;51.058;17.220;2023-09-12T18:35:19;101264.36;;;20.94;78.21
54022;BME280;39936;51.058;17.220;2023-09-12T18:38:48;101263.59;;;20.86;78.95
54022;BME280;39936;51.058;17.220;2023-09-12T18:42:11;101264.39;;;20.77;79.30
54022;BME280;39936;51.058;17.220;2023-09-12T18:45:57;101265.73;;;20.69;78.95
54022;BME280;39936;51.058;17.220;2023-09-12T18:49:13;101263.57;;;20.63;78.99